createdAt,value
2022-11-28T00:00:42.784Z,102517.54
2022-11-28T00:02:06.730Z,102522.14
2022-11-28T00:03:10.980Z,102520.55
2022-11-28T00:04:17.190Z,102519.94
2022-11-28T00:05:21.656Z,102520.52
2022-11-28T00:06:28.264Z,102520.98
2022-11-28T00:07:32.806Z,102519.77
2022-11-28T00:08:37.433Z,102517.91
2022-11-28T00:09:41.560Z,102515.64
2022-11-28T00:10:45.602Z,102519.38
2022-11-28T00:11:51.809Z,102519.27
2022-11-28T00:12:55.535Z,102517.83
2022-11-28T00:13:59.282Z,102517.56
2022-11-28T00:15:05.102Z,102515.92
2022-11-28T00:16:14.515Z,102518.89
2022-11-28T00:17:19.454Z,102519.73
2022-11-28T00:18:26.976Z,102521.14
2022-11-28T00:19:33.164Z,102520.66
2022-11-28T00:20:37.895Z,102518.87
2022-11-28T00:21:42.304Z,102517.70
2022-11-28T00:22:48.389Z,102521.77
2022-11-28T00:23:52.742Z,102521.30
2022-11-28T00:24:57.791Z,102519.13
2022-11-28T00:26:06.709Z,102522.84
2022-11-28T00:27:11.391Z,102522.81
2022-11-28T00:28:15.118Z,102523.80
2022-11-28T00:29:19.841Z,102524.70
2022-11-28T00:30:23.409Z,102521.08
2022-11-28T00:31:32.147Z,102524.81
2022-11-28T00:32:36.028Z,102524.31
2022-11-28T00:33:39.824Z,102520.98
2022-11-28T00:34:43.695Z,102519.91
2022-11-28T00:35:47.502Z,102519.23
2022-11-28T00:36:51.094Z,102524.12
2022-11-28T00:37:56.223Z,102519.98
2022-11-28T00:38:59.701Z,102523.90
2022-11-28T00:40:05.614Z,102522.72
2022-11-28T00:41:25.633Z,102521.69
2022-11-28T00:42:29.468Z,102520.48
2022-11-28T00:43:36.490Z,102520.79
2022-11-28T00:44:40.609Z,102523.81
2022-11-28T00:45:46.714Z,102519.88
2022-11-28T00:46:50.293Z,102521.15
2022-11-28T00:47:54.518Z,102523.02
2022-11-28T00:49:00.639Z,102522.86
2022-11-28T00:50:04.734Z,102524.78
2022-11-28T00:51:14.278Z,102522.30
2022-11-28T00:52:19.713Z,102524.27
2022-11-28T00:53:23.410Z,102521.19
2022-11-28T00:54:27.504Z,102522.39
2022-11-28T00:55:32.883Z,102522.27
2022-11-28T00:56:39.099Z,102523.62
2022-11-28T00:57:44.767Z,102525.67
2022-11-28T01:00:11.825Z,102522.67
2022-11-28T01:01:20.138Z,102520.17
2022-11-28T01:02:24.709Z,102521.66
2022-11-28T01:03:28.797Z,102520.08
2022-11-28T01:04:35.067Z,102515.85
2022-11-28T01:05:43.467Z,102517.79
2022-11-28T01:06:52.163Z,102518.20
2022-11-28T01:07:56.320Z,102514.41
2022-11-28T01:09:04.556Z,102513.54
2022-11-28T01:10:11.128Z,102509.80
2022-11-28T01:11:16.662Z,102515.59
2022-11-28T01:12:20.767Z,102514.20
2022-11-28T01:13:24.870Z,102510.67
2022-11-28T01:14:29.280Z,102511.48
2022-11-28T01:15:33.180Z,102505.70
2022-11-28T01:16:38.272Z,102502.38
2022-11-28T01:17:42.934Z,102505.17
2022-11-28T01:18:47.131Z,102504.66
2022-11-28T01:19:53.179Z,102501.25
2022-11-28T01:20:57.071Z,102499.46
2022-11-28T01:22:03.333Z,102499.98
2022-11-28T01:23:07.735Z,102499.17
2022-11-28T01:24:14.259Z,102496.48
2022-11-28T01:25:17.988Z,102494.25
2022-11-28T01:26:27.420Z,102496.05
2022-11-28T01:27:32.189Z,102492.83
2022-11-28T01:28:37.311Z,102491.70
2022-11-28T01:29:41.043Z,102492.20
2022-11-28T01:30:46.525Z,102490.88
2022-11-28T01:31:50.844Z,102490.23
2022-11-28T01:32:54.823Z,102488.48
2022-11-28T01:33:59.713Z,102486.20
2022-11-28T01:35:03.669Z,102485.83
2022-11-28T01:36:07.979Z,102483.67
2022-11-28T01:37:11.785Z,102485.69
2022-11-28T01:38:16.232Z,102484.39
2022-11-28T01:39:20.098Z,102483.45
2022-11-28T01:40:25.069Z,102484.17
2022-11-28T01:41:29.622Z,102484.82
2022-11-28T01:42:35.316Z,102482.98
2022-11-28T01:43:57.145Z,102478.73
2022-11-28T01:45:13.201Z,102483.25
2022-11-28T01:46:17.050Z,102483.95
2022-11-28T01:47:28.157Z,102482.45
2022-11-28T01:48:36.497Z,102480.77
2022-11-28T01:49:41.253Z,102482.77
2022-11-28T01:50:46.594Z,102481.58
2022-11-28T01:51:56.364Z,102481.40
2022-11-28T01:53:04.752Z,102482.42
2022-11-28T01:54:08.940Z,102482.68
2022-11-28T01:55:15.958Z,102484.30
2022-11-28T01:56:48.101Z,102481.05
2022-11-28T01:57:54.455Z,102477.92
2022-11-28T01:59:07.521Z,102476.10
2022-11-28T02:00:17.124Z,102476.75
2022-11-28T02:01:24.612Z,102472.41
2022-11-28T02:02:46.645Z,102476.23
2022-11-28T02:03:53.010Z,102476.23
2022-11-28T02:04:57.403Z,102475.70
2022-11-28T02:06:01.000Z,102475.89
2022-11-28T02:07:05.107Z,102477.88
2022-11-28T02:08:10.329Z,102476.02
2022-11-28T02:09:16.578Z,102475.35
2022-11-28T02:10:29.311Z,102476.90
2022-11-28T02:12:05.442Z,102475.80
2022-11-28T02:13:22.532Z,102470.66
2022-11-28T02:14:29.130Z,102471.71
2022-11-28T02:16:14.166Z,102468.83
2022-11-28T02:17:57.751Z,102467.62
2022-11-28T02:19:29.583Z,102462.55
2022-11-28T02:20:45.139Z,102458.62
2022-11-28T02:21:48.972Z,102462.20
2022-11-28T02:23:07.713Z,102464.05
2022-11-28T02:24:32.095Z,102460.63
2022-11-28T02:26:08.140Z,102456.63
2022-11-28T02:27:53.600Z,102455.73
2022-11-28T02:29:23.218Z,102450.59
2022-11-28T02:32:04.613Z,102453.13
2022-11-28T02:33:24.676Z,102453.17
2022-11-28T02:34:35.336Z,102454.02
2022-11-28T02:36:05.652Z,102453.21
2022-11-28T02:37:18.034Z,102447.05
2022-11-28T02:39:05.219Z,102450.11
2022-11-28T02:40:36.879Z,102449.77
2022-11-28T02:42:02.811Z,102450.89
2022-11-28T02:43:22.007Z,102448.02
2022-11-28T02:44:45.198Z,102448.60
2022-11-28T02:45:58.752Z,102447.52
2022-11-28T02:47:14.047Z,102450.21
2022-11-28T02:48:38.000Z,102447.94
2022-11-28T02:49:45.995Z,102447.34
2022-11-28T02:51:06.171Z,102447.13
2022-11-28T02:52:19.452Z,102443.15
2022-11-28T02:53:26.052Z,102447.22
2022-11-28T02:54:32.043Z,102447.59
2022-11-28T02:55:40.299Z,102444.82
2022-11-28T02:56:53.719Z,102443.95
2022-11-28T02:57:57.402Z,102446.00
2022-11-28T02:59:03.211Z,102442.23
2022-11-28T03:00:27.247Z,102446.22
2022-11-28T03:01:37.272Z,102443.00
2022-11-28T03:02:44.098Z,102444.39
2022-11-28T03:04:26.601Z,102440.42
2022-11-28T03:06:11.268Z,102436.94
2022-11-28T03:07:47.227Z,102440.94
2022-11-28T03:09:00.875Z,102439.48
2022-11-28T03:10:19.747Z,102438.95
2022-11-28T03:11:52.143Z,102439.08
2022-11-28T03:13:15.501Z,102440.37
2022-11-28T03:14:35.082Z,102439.19
2022-11-28T03:15:51.937Z,102439.16
2022-11-28T03:17:32.551Z,102440.65
2022-11-28T03:18:42.638Z,102434.45
2022-11-28T03:20:06.414Z,102433.05
2022-11-28T03:21:20.066Z,102431.70
2022-11-28T03:22:42.735Z,102435.21
2022-11-28T03:23:57.662Z,102437.19
2022-11-28T03:25:16.511Z,102434.41
2022-11-28T03:26:54.418Z,102430.50
2022-11-28T03:28:15.022Z,102429.11
2022-11-28T03:29:36.681Z,102432.64
2022-11-28T03:31:03.147Z,102426.75
2022-11-28T03:32:15.473Z,102429.46
2022-11-28T03:33:22.425Z,102429.27
2022-11-28T03:34:33.278Z,102428.96
2022-11-28T03:35:45.260Z,102429.27
2022-11-28T03:36:57.258Z,102430.89
2022-11-28T03:38:09.451Z,102431.56
2022-11-28T03:39:18.169Z,102432.65
2022-11-28T03:40:26.610Z,102431.21
2022-11-28T03:41:44.551Z,102431.98
2022-11-28T03:42:55.159Z,102432.12
2022-11-28T03:44:03.160Z,102436.91
2022-11-28T03:45:24.725Z,102437.45
2022-11-28T03:46:35.572Z,102440.48
2022-11-28T03:47:46.705Z,102440.75
2022-11-28T03:48:58.173Z,102441.33
2022-11-28T03:50:10.214Z,102440.62
2022-11-28T03:51:21.231Z,102438.70
2022-11-28T03:52:40.770Z,102441.50
2022-11-28T03:54:06.800Z,102437.33
2022-11-28T03:55:24.604Z,102442.69
2022-11-28T03:56:30.762Z,102439.25
2022-11-28T03:57:42.319Z,102442.98
2022-11-28T03:58:55.982Z,102445.77
2022-11-28T04:00:03.503Z,102443.75
2022-11-28T04:01:21.221Z,102444.80
2022-11-28T04:02:31.434Z,102446.16
2022-11-28T04:03:57.109Z,102449.05
2022-11-28T04:05:26.506Z,102445.60
2022-11-28T04:06:57.827Z,102447.28
2022-11-28T04:08:24.626Z,102451.67
2022-11-28T04:09:37.970Z,102452.83
2022-11-28T04:10:45.854Z,102451.94
2022-11-28T04:11:57.317Z,102454.55
2022-11-28T04:13:09.654Z,102453.83
2022-11-28T04:14:31.847Z,102456.44
2022-11-28T04:15:57.244Z,102453.80
2022-11-28T04:17:09.979Z,102452.95
2022-11-28T04:19:08.875Z,102453.13
2022-11-28T04:20:19.020Z,102447.86
2022-11-28T04:21:40.412Z,102447.59
2022-11-28T04:22:56.372Z,102449.05
2022-11-28T04:24:06.127Z,102447.87
2022-11-28T04:25:15.277Z,102446.65
2022-11-28T04:26:46.924Z,102446.39
2022-11-28T04:27:57.802Z,102450.92
2022-11-28T04:29:03.847Z,102454.77
2022-11-28T04:30:09.267Z,102454.07
2022-11-28T04:31:16.834Z,102452.08
2022-11-28T04:32:22.965Z,102451.95
2022-11-28T04:33:32.009Z,102454.36
2022-11-28T04:34:37.921Z,102450.73
2022-11-28T04:35:49.903Z,102448.03
2022-11-28T04:36:57.223Z,102450.99
2022-11-28T04:38:03.987Z,102447.58
2022-11-28T04:39:12.084Z,102448.23
2022-11-28T04:40:17.646Z,102449.22
2022-11-28T04:41:27.139Z,102450.38
2022-11-28T04:42:37.806Z,102452.36
2022-11-28T04:43:46.611Z,102454.62
2022-11-28T04:45:09.750Z,102450.15
2022-11-28T04:46:20.279Z,102454.67
2022-11-28T04:47:26.159Z,102451.84
2022-11-28T04:48:34.231Z,102453.90
2022-11-28T04:49:38.664Z,102453.70
2022-11-28T04:51:20.354Z,102450.95
2022-11-28T04:52:36.410Z,102454.98
2022-11-28T04:53:59.895Z,102454.30
2022-11-28T04:55:31.620Z,102454.45
2022-11-28T04:56:45.973Z,102456.71
2022-11-28T04:58:02.974Z,102455.47
2022-11-28T04:59:07.913Z,102452.48
2022-11-28T05:00:20.205Z,102451.22
2022-11-28T05:01:29.486Z,102449.69
2022-11-28T05:02:35.020Z,102452.17
2022-11-28T05:03:42.827Z,102449.95
2022-11-28T05:04:47.846Z,102447.48
2022-11-28T05:05:52.480Z,102447.49
2022-11-28T05:07:06.616Z,102449.02
2022-11-28T05:08:10.536Z,102449.51
2022-11-28T05:09:17.401Z,102444.87
2022-11-28T05:10:21.529Z,102442.73
2022-11-28T05:11:29.090Z,102445.65
2022-11-28T05:12:32.787Z,102445.54
2022-11-28T05:13:37.788Z,102440.87
2022-11-28T05:14:41.767Z,102438.61
2022-11-28T05:15:48.344Z,102442.67
2022-11-28T05:16:52.429Z,102446.63
2022-11-28T05:17:58.033Z,102447.36
2022-11-28T05:19:02.119Z,102445.67
2022-11-28T05:20:09.699Z,102445.75
2022-11-28T05:21:13.998Z,102450.64
2022-11-28T05:22:17.590Z,102448.90
2022-11-28T05:23:23.443Z,102446.14
2022-11-28T05:24:32.088Z,102446.48
2022-11-28T05:25:39.274Z,102450.88
2022-11-28T05:26:44.050Z,102450.91
2022-11-28T05:27:48.160Z,102452.59
2022-11-28T05:28:55.427Z,102449.91
2022-11-28T05:30:00.046Z,102452.84
2022-11-28T05:31:08.888Z,102450.08
2022-11-28T05:32:14.398Z,102450.79
2022-11-28T05:33:18.294Z,102453.45
2022-11-28T05:34:22.307Z,102448.17
2022-11-28T05:35:28.641Z,102447.48
2022-11-28T05:36:32.414Z,102444.98
2022-11-28T05:37:38.499Z,102446.04
2022-11-28T05:38:42.913Z,102442.00
2022-11-28T05:39:46.349Z,102443.13
2022-11-28T05:40:53.202Z,102440.89
2022-11-28T05:41:57.064Z,102441.27
2022-11-28T05:43:03.574Z,102438.73
2022-11-28T05:44:07.672Z,102440.59
2022-11-28T05:45:13.943Z,102434.55
2022-11-28T05:46:18.857Z,102433.13
2022-11-28T05:47:26.380Z,102434.91
2022-11-28T05:48:30.381Z,102434.08
2022-11-28T05:49:36.067Z,102433.80
2022-11-28T05:50:45.038Z,102435.92
2022-11-28T05:51:49.092Z,102436.30
2022-11-28T05:52:52.731Z,102433.01
2022-11-28T05:53:58.370Z,102435.80
2022-11-28T05:55:02.060Z,102432.98
2022-11-28T05:56:10.875Z,102431.73
2022-11-28T05:57:15.033Z,102432.30
2022-11-28T05:58:20.822Z,102432.73
2022-11-28T05:59:24.823Z,102435.38
2022-11-28T06:00:31.193Z,102432.73
2022-11-28T06:01:34.970Z,102434.53
2022-11-28T06:02:38.473Z,102433.48
2022-11-28T06:03:42.892Z,102435.84
2022-11-28T06:04:46.824Z,102432.70
2022-11-28T06:05:50.564Z,102436.89
2022-11-28T06:06:56.437Z,102432.40
2022-11-28T06:08:00.806Z,102433.39
2022-11-28T06:09:09.016Z,102432.77
2022-11-28T06:10:12.913Z,102429.35
2022-11-28T06:11:21.914Z,102423.25
2022-11-28T06:12:25.655Z,102420.77
2022-11-28T06:13:29.325Z,102420.10
2022-11-28T06:14:32.806Z,102423.13
2022-11-28T06:15:39.495Z,102418.46
2022-11-28T06:16:43.925Z,102420.09
2022-11-28T06:17:49.419Z,102420.38
2022-11-28T06:18:54.853Z,102419.27
2022-11-28T06:20:01.136Z,102423.17
2022-11-28T06:21:06.131Z,102417.60
2022-11-28T06:22:11.696Z,102416.32
2022-11-28T06:23:15.440Z,102415.77
2022-11-28T06:24:24.973Z,102411.55
2022-11-28T06:25:29.503Z,102417.45
2022-11-28T06:26:37.855Z,102418.02
2022-11-28T06:27:42.042Z,102420.59
2022-11-28T06:28:48.979Z,102419.44
2022-11-28T06:29:53.386Z,102422.16
2022-11-28T06:30:57.838Z,102419.67
2022-11-28T06:32:02.269Z,102419.94
2022-11-28T06:33:10.010Z,102421.05
2022-11-28T06:34:16.760Z,102420.20
2022-11-28T06:35:20.800Z,102419.16
2022-11-28T06:36:26.516Z,102419.58
2022-11-28T06:37:33.824Z,102421.81
2022-11-28T06:38:38.340Z,102420.27
2022-11-28T06:39:42.409Z,102421.41
2022-11-28T06:40:47.011Z,102420.73
2022-11-28T06:41:53.752Z,102419.98
2022-11-28T06:42:57.208Z,102422.42
2022-11-28T06:44:04.534Z,102420.75
2022-11-28T06:45:09.474Z,102424.38
2022-11-28T06:46:16.890Z,102424.09
2022-11-28T06:47:19.995Z,102422.08
2022-11-28T06:48:23.600Z,102419.73
2022-11-28T06:49:26.692Z,102423.55
2022-11-28T06:50:29.983Z,102421.20
2022-11-28T06:51:33.255Z,102419.17
2022-11-28T06:52:36.607Z,102417.59
2022-11-28T06:53:40.360Z,102417.92
2022-11-28T06:54:44.557Z,102414.34
2022-11-28T06:55:47.809Z,102416.05
2022-11-28T06:56:51.029Z,102416.85
2022-11-28T06:57:54.077Z,102417.59
2022-11-28T06:58:58.783Z,102414.34
2022-11-28T07:00:01.829Z,102416.73
2022-11-28T07:01:18.611Z,102418.06
2022-11-28T07:02:25.103Z,102418.68
2022-11-28T07:03:28.256Z,102418.70
2022-11-28T07:04:31.221Z,102418.02
2022-11-28T07:05:34.174Z,102418.70
2022-11-28T07:06:37.170Z,102420.98
2022-11-28T07:07:53.284Z,102417.23
2022-11-28T07:08:58.474Z,102419.52
2022-11-28T07:10:01.494Z,102421.16
2022-11-28T07:11:13.056Z,102423.48
2022-11-28T07:12:16.071Z,102419.64
2022-11-28T07:13:19.192Z,102416.63
2022-11-28T07:14:22.347Z,102418.10
2022-11-28T07:15:25.723Z,102415.19
2022-11-28T07:16:31.821Z,102414.48
2022-11-28T07:17:35.316Z,102415.52
2022-11-28T07:18:38.513Z,102418.05
2022-11-28T07:19:41.869Z,102419.70
2022-11-28T07:20:45.032Z,102415.55
2022-11-28T07:21:49.246Z,102417.25
2022-11-28T07:22:52.317Z,102417.14
2022-11-28T07:23:55.735Z,102416.97
2022-11-28T07:24:58.699Z,102416.10
2022-11-28T07:26:03.899Z,102417.13
2022-11-28T07:27:06.918Z,102412.88
2022-11-28T07:28:10.257Z,102415.14
2022-11-28T07:29:18.265Z,102414.42
2022-11-28T07:30:21.327Z,102413.70
2022-11-28T07:31:26.702Z,102414.38
2022-11-28T07:32:29.787Z,102409.48
2022-11-28T07:33:34.587Z,102412.61
2022-11-28T07:34:38.086Z,102410.78
2022-11-28T07:35:41.038Z,102414.13
2022-11-28T07:36:44.066Z,102416.33
2022-11-28T07:37:47.054Z,102418.84
2022-11-28T07:38:52.602Z,102417.16
2022-11-28T07:39:56.150Z,102417.30
2022-11-28T07:41:04.240Z,102421.86
2022-11-28T07:42:07.169Z,102420.95
2022-11-28T07:43:10.232Z,102417.20
2022-11-28T07:44:13.174Z,102417.84
2022-11-28T07:45:16.576Z,102416.48
2022-11-28T07:46:20.191Z,102417.95
2022-11-28T07:47:23.193Z,102416.96
2022-11-28T07:48:26.373Z,102417.48
2022-11-28T07:49:29.326Z,102423.46
2022-11-28T07:50:32.370Z,102424.66
2022-11-28T07:51:35.503Z,102423.48
2022-11-28T07:52:38.926Z,102428.51
2022-11-28T07:53:42.847Z,102426.77
2022-11-28T07:54:45.946Z,102423.79
2022-11-28T07:55:49.113Z,102425.45
2022-11-28T07:58:15.011Z,102425.58
2022-11-28T07:59:18.068Z,102424.11
2022-11-28T08:00:21.751Z,102425.10
2022-11-28T08:01:30.054Z,102424.84
2022-11-28T08:02:33.288Z,102427.33
2022-11-28T08:03:37.064Z,102426.45
2022-11-28T08:04:45.427Z,102422.48
2022-11-28T08:05:51.644Z,102424.77
2022-11-28T08:06:55.481Z,102425.60
2022-11-28T08:07:58.485Z,102419.36
2022-11-28T08:09:01.782Z,102422.59
2022-11-28T08:10:06.774Z,102420.30
2022-11-28T08:11:10.223Z,102422.00
2022-11-28T08:12:13.278Z,102423.84
2022-11-28T08:13:16.254Z,102421.73
2022-11-28T08:14:19.941Z,102422.63
2022-11-28T08:15:22.893Z,102423.23
2022-11-28T08:16:28.121Z,102418.27
2022-11-28T08:17:34.407Z,102418.35
2022-11-28T08:18:37.551Z,102412.15
2022-11-28T08:19:40.432Z,102414.52
2022-11-28T08:20:43.371Z,102417.61
2022-11-28T08:21:46.462Z,102410.64
2022-11-28T08:22:49.802Z,102413.83
2022-11-28T08:23:55.228Z,102412.88
2022-11-28T08:24:58.165Z,102415.98
2022-11-28T08:26:06.455Z,102413.55
2022-11-28T08:27:09.485Z,102413.99
2022-11-28T08:28:12.524Z,102415.15
2022-11-28T08:29:15.495Z,102411.61
2022-11-28T08:30:18.489Z,102409.17
2022-11-28T08:31:25.163Z,102409.92
2022-11-28T08:32:30.533Z,102412.20
2022-11-28T08:33:33.645Z,102414.44
2022-11-28T08:34:36.540Z,102413.63
2022-11-28T08:35:40.087Z,102413.95
2022-11-28T08:36:43.508Z,102413.69
2022-11-28T08:37:47.139Z,102415.05
2022-11-28T08:39:09.515Z,102413.44
2022-11-28T08:40:14.560Z,102419.03
2022-11-28T08:41:20.557Z,102422.17
2022-11-28T08:42:23.646Z,102423.19
2022-11-28T08:43:26.653Z,102420.15
2022-11-28T08:44:30.686Z,102416.76
2022-11-28T08:45:37.145Z,102419.95
2022-11-28T08:46:40.142Z,102415.31
2022-11-28T08:47:43.019Z,102410.50
2022-11-28T08:48:46.777Z,102409.30
2022-11-28T08:49:49.884Z,102403.98
2022-11-28T08:50:52.889Z,102406.56
2022-11-28T08:51:55.807Z,102401.80
2022-11-28T08:53:01.902Z,102402.54
2022-11-28T08:54:10.478Z,102400.83
2022-11-28T08:55:13.788Z,102404.48
2022-11-28T08:56:17.184Z,102404.44
2022-11-28T08:57:20.202Z,102402.55
2022-11-28T08:58:23.311Z,102405.80
2022-11-28T08:59:26.319Z,102402.12
2022-11-28T09:00:29.417Z,102405.82
2022-11-28T09:01:32.502Z,102402.36
2022-11-28T09:02:35.511Z,102408.27
2022-11-28T09:03:38.559Z,102405.71
2022-11-28T09:04:41.690Z,102406.02
2022-11-28T09:05:46.240Z,102409.14
2022-11-28T09:06:49.803Z,102408.05
2022-11-28T09:07:55.020Z,102406.48
2022-11-28T09:08:58.063Z,102408.31
2022-11-28T09:10:01.031Z,102410.88
2022-11-28T09:11:09.800Z,102409.18
2022-11-28T09:12:12.786Z,102411.27
2022-11-28T09:13:15.980Z,102410.99
2022-11-28T09:14:18.953Z,102409.79
2022-11-28T09:15:21.968Z,102412.99
2022-11-28T09:16:25.504Z,102411.09
2022-11-28T09:17:28.413Z,102407.52
2022-11-28T09:18:31.753Z,102407.91
2022-11-28T09:19:34.697Z,102405.40
2022-11-28T09:20:37.700Z,102404.84
2022-11-28T09:21:41.607Z,102408.05
2022-11-28T09:22:44.626Z,102409.43
2022-11-28T09:23:47.693Z,102406.77
2022-11-28T09:24:50.601Z,102407.50
2022-11-28T09:25:53.814Z,102400.97
2022-11-28T09:26:56.907Z,102401.56
2022-11-28T09:28:01.232Z,102401.52
2022-11-28T09:29:04.272Z,102403.84
2022-11-28T09:30:09.550Z,102404.69
2022-11-28T09:31:14.368Z,102399.54
2022-11-28T09:32:17.469Z,102400.03
2022-11-28T09:33:20.406Z,102399.71
2022-11-28T09:34:23.327Z,102394.66
2022-11-28T09:35:26.374Z,102399.45
2022-11-28T09:36:30.411Z,102400.38
2022-11-28T09:37:33.511Z,102400.98
2022-11-28T09:38:36.591Z,102402.14
2022-11-28T09:40:04.780Z,102405.55
2022-11-28T09:41:03.786Z,102402.92
2022-11-28T09:42:22.163Z,102399.91
2022-11-28T09:43:28.227Z,102399.09
2022-11-28T09:44:48.044Z,102403.07
2022-11-28T09:45:54.012Z,102401.61
2022-11-28T09:47:00.626Z,102399.09
2022-11-28T09:48:26.937Z,102394.15
2022-11-28T09:49:35.343Z,102395.21
2022-11-28T09:50:43.765Z,102390.55
2022-11-28T09:51:58.576Z,102393.26
2022-11-28T09:53:13.982Z,102391.49
2022-11-28T09:54:29.205Z,102388.26
2022-11-28T09:55:41.648Z,102388.13
2022-11-28T09:56:48.517Z,102387.42
2022-11-28T09:57:53.263Z,102388.61
2022-11-28T09:59:00.734Z,102387.48
2022-11-28T10:00:06.116Z,102387.96
2022-11-28T10:01:51.262Z,102388.81
2022-11-28T10:03:13.653Z,102392.11
2022-11-28T10:04:30.677Z,102391.46
2022-11-28T10:05:57.869Z,102390.92
2022-11-28T10:07:00.867Z,102389.39
2022-11-28T10:08:21.615Z,102392.81
2022-11-28T10:09:24.353Z,102390.72
2022-11-28T10:10:43.693Z,102392.29
2022-11-28T10:12:05.073Z,102389.15
2022-11-28T10:13:18.334Z,102388.70
2022-11-28T10:14:45.592Z,102386.84
2022-11-28T10:16:09.498Z,102388.42
2022-11-28T10:17:31.761Z,102388.08
2022-11-28T10:18:50.940Z,102387.08
2022-11-28T10:19:59.047Z,102385.39
2022-11-28T10:21:23.838Z,102383.05
2022-11-28T10:22:58.849Z,102385.15
2022-11-28T10:24:12.737Z,102377.92
2022-11-28T10:25:26.389Z,102379.42
2022-11-28T10:26:36.131Z,102376.84
2022-11-28T10:27:41.000Z,102378.39
2022-11-28T10:28:49.537Z,102374.28
2022-11-28T10:29:57.913Z,102372.81
2022-11-28T10:31:10.908Z,102371.34
2022-11-28T10:32:20.585Z,102372.74
2022-11-28T10:33:33.968Z,102370.73
2022-11-28T10:34:57.911Z,102368.61
2022-11-28T10:36:02.589Z,102372.32
2022-11-28T10:37:34.043Z,102372.16
2022-11-28T10:38:37.036Z,102372.30
2022-11-28T10:39:44.132Z,102370.19
2022-11-28T10:40:55.125Z,102368.79
2022-11-28T10:42:22.138Z,102366.96
2022-11-28T10:43:33.241Z,102368.89
2022-11-28T10:44:40.711Z,102370.09
2022-11-28T10:45:57.839Z,102365.65
2022-11-28T10:47:06.463Z,102370.09
2022-11-28T10:48:39.626Z,102368.88
2022-11-28T10:50:05.206Z,102368.23
2022-11-28T10:51:17.145Z,102369.52
2022-11-28T10:52:34.742Z,102373.97
2022-11-28T10:54:23.029Z,102373.05
2022-11-28T10:55:26.180Z,102373.55
2022-11-28T10:56:43.336Z,102376.26
2022-11-28T10:57:59.674Z,102376.40
2022-11-28T10:59:23.111Z,102373.89
2022-11-28T11:00:26.051Z,102373.36
2022-11-28T11:01:37.663Z,102372.96
2022-11-28T11:03:00.302Z,102373.27
2022-11-28T11:04:04.134Z,102373.54
2022-11-28T11:05:13.310Z,102371.13
2022-11-28T11:06:16.216Z,102372.63
2022-11-28T11:07:30.833Z,102371.61
2022-11-28T11:08:39.274Z,102374.27
2022-11-28T11:09:43.672Z,102371.22
2022-11-28T11:10:52.555Z,102374.40
2022-11-28T11:12:00.940Z,102372.33
2022-11-28T11:13:31.333Z,102374.77
2022-11-28T11:14:37.435Z,102375.06
2022-11-28T11:15:40.670Z,102377.23
2022-11-28T11:16:50.134Z,102376.30
2022-11-28T11:17:53.082Z,102377.24
2022-11-28T11:18:56.142Z,102375.26
2022-11-28T11:19:59.075Z,102372.20
2022-11-28T11:21:17.448Z,102372.02
2022-11-28T11:22:28.317Z,102374.02
2022-11-28T11:23:36.728Z,102375.02
2022-11-28T11:24:41.448Z,102374.94
2022-11-28T11:25:54.841Z,102378.98
2022-11-28T11:27:16.310Z,102377.92
2022-11-28T11:28:33.808Z,102379.90
2022-11-28T11:29:37.980Z,102380.02
2022-11-28T11:30:43.695Z,102379.27
2022-11-28T11:31:51.067Z,102378.90
2022-11-28T11:32:56.351Z,102378.60
2022-11-28T11:34:13.018Z,102376.67
2022-11-28T11:35:19.341Z,102369.89
2022-11-28T11:36:25.882Z,102368.58
2022-11-28T11:37:36.280Z,102372.66
2022-11-28T11:38:39.748Z,102372.28
2022-11-28T11:39:49.385Z,102373.39
2022-11-28T11:40:52.734Z,102375.02
2022-11-28T11:42:01.616Z,102376.02
2022-11-28T11:43:32.202Z,102375.95
2022-11-28T11:44:36.608Z,102377.03
2022-11-28T11:45:39.699Z,102379.14
2022-11-28T11:46:55.262Z,102373.23
2022-11-28T11:47:58.559Z,102374.40
2022-11-28T11:49:01.512Z,102375.70
2022-11-28T11:50:06.162Z,102376.29
2022-11-28T11:51:32.662Z,102380.09
2022-11-28T11:52:38.107Z,102380.38
2022-11-28T11:53:41.069Z,102378.27
2022-11-28T11:55:11.605Z,102377.58
2022-11-28T11:56:14.874Z,102374.91
2022-11-28T11:57:35.221Z,102370.25
2022-11-28T11:58:46.933Z,102371.84
2022-11-28T12:00:04.415Z,102368.91
2022-11-28T12:01:18.057Z,102372.33
2022-11-28T12:02:36.817Z,102368.14
2022-11-28T12:03:50.487Z,102368.87
2022-11-28T12:05:03.347Z,102369.40
2022-11-28T12:06:20.697Z,102368.13
2022-11-28T12:07:34.486Z,102371.47
2022-11-28T12:08:49.259Z,102366.56
2022-11-28T12:09:55.669Z,102363.77
2022-11-28T12:11:18.954Z,102365.14
2022-11-28T12:12:29.287Z,102364.95
2022-11-28T12:13:33.160Z,102362.11
2022-11-28T12:14:38.648Z,102362.95
2022-11-28T12:15:53.357Z,102362.35
2022-11-28T12:19:12.349Z,102363.20
2022-11-28T12:20:30.924Z,102359.79
2022-11-28T12:21:48.358Z,102358.48
2022-11-28T12:23:28.473Z,102358.79
2022-11-28T12:24:46.428Z,102353.63
2022-11-28T12:26:06.533Z,102352.55
2022-11-28T12:27:51.115Z,102356.84
2022-11-28T12:29:22.686Z,102352.63
2022-11-28T12:30:50.519Z,102353.52
2022-11-28T12:32:17.232Z,102350.98
2022-11-28T12:33:39.015Z,102349.33
2022-11-28T12:35:15.460Z,102352.67
2022-11-28T12:36:18.594Z,102350.33
2022-11-28T12:38:09.710Z,102347.02
2022-11-28T12:39:24.604Z,102348.29
2022-11-28T12:40:35.623Z,102341.69
2022-11-28T12:41:44.673Z,102343.42
2022-11-28T12:43:01.262Z,102344.94
2022-11-28T12:44:19.462Z,102336.42
2022-11-28T12:45:33.427Z,102336.32
2022-11-28T12:46:51.835Z,102334.88
2022-11-28T12:48:03.635Z,102333.73
2022-11-28T12:49:16.706Z,102336.46
2022-11-28T12:50:33.949Z,102334.77
2022-11-28T12:51:59.385Z,102331.72
2022-11-28T12:53:27.251Z,102332.25
2022-11-28T12:54:39.230Z,102327.89
2022-11-28T12:56:07.757Z,102327.69
2022-11-28T12:57:39.162Z,102330.78
2022-11-28T12:58:51.463Z,102321.88
2022-11-28T13:00:08.085Z,102326.33
2022-11-28T13:01:35.046Z,102324.44
2022-11-28T13:03:07.178Z,102325.12
2022-11-28T13:04:13.273Z,102327.11
2022-11-28T13:05:21.880Z,102327.02
2022-11-28T13:06:33.909Z,102328.04
2022-11-28T13:07:58.553Z,102322.79
2022-11-28T13:09:13.638Z,102329.94
2022-11-28T13:10:31.321Z,102327.46
2022-11-28T13:11:51.894Z,102327.13
2022-11-28T13:13:05.616Z,102325.00
2022-11-28T13:14:23.232Z,102322.38
2022-11-28T13:16:02.222Z,102321.05
2022-11-28T13:17:12.955Z,102320.74
2022-11-28T13:18:15.792Z,102319.46
2022-11-28T13:19:24.631Z,102318.50
2022-11-28T13:20:44.781Z,102315.33
2022-11-28T13:22:01.499Z,102317.45
2022-11-28T13:23:25.357Z,102316.72
2022-11-28T13:25:00.790Z,102313.34
2022-11-28T13:26:16.122Z,102316.02
2022-11-28T13:27:33.231Z,102314.57